Kitanomaru — JD2835 — position and weather

sailwx.info

Track history (hours):
 
Tides and Currents Weather Stations Pressure Air Temp Water Temp Dewpoint Dewpoint Depression Visibility Wind Speed Wind Dir Waves Ship Positions

Kitanomaru

Last reported at 2015-May-03 22:33 UTC. Time now 2015-May-03 22:57 UTC.
Position N 35°35' E 140°06'.

Length 39 m; draft 4 m.

Type: Tug. MMSI: 431000773.

Date/timePositionNaut miles runAvg speedWind from/ knotsBaromVisibWave heightAir tempDewpointWater temp
2015-May-03 22:33N 35°35' E 140°06'5 5.0
2015-May-03 21:32N 35°31' E 140°02'6 6.1
2015-May-03 20:33N 35°36' E 140°06'0 0.0
2015-May-03 19:33N 35°36' E 140°06'0 0.0
2015-May-03 18:33N 35°36' E 140°06'0 0.0
2015-May-03 17:33N 35°36' E 140°06'0 0.0
2015-May-03 16:33N 35°36' E 140°06'0 0.0
2015-May-03 15:33N 35°36' E 140°06'0 0.0
2015-May-03 14:33N 35°36' E 140°06'0 0.0
2015-May-03 13:34N 35°36' E 140°06'0 0.0
2015-May-03 12:33N 35°36' E 140°06'0 0.0
2015-May-03 11:33N 35°36' E 140°06'0 0.0
2015-May-03 10:33N 35°36' E 140°06'7 7.3
2015-May-03 09:32N 35°30' E 140°01'0 0.1
2015-May-03 08:33N 35°30' E 140°01'1 1.5
2015-May-03 07:33N 35°31' E 140°00'0 0.3
2015-May-03 06:33N 35°31' E 140°01'0 0.0
2015-May-03 05:31N 35°31' E 140°01'0 0.0
2015-May-03 04:33N 35°31' E 140°01'3 3.3
2015-May-03 03:34N 35°28' E 139°58'0 0.5
2015-May-03 02:33N 35°29' E 139°59'3 3.4
2015-May-03 01:34N 35°32' E 140°00'1 0.9
2015-May-03 00:32N 35°31' E 139°60'2 1.6
2015-May-02 23:33N 35°32' E 140°01'6 6.0
2015-May-02 22:33N 35°36' E 140°06'0 0.0
2015-May-02 21:33N 35°36' E 140°06'0 0.0
2015-May-02 20:33N 35°36' E 140°06'0 0.0
2015-May-02 19:33N 35°36' E 140°06'0 0.0
2015-May-02 18:33N 35°36' E 140°06'0 0.0
2015-May-02 17:33N 35°36' E 140°06'0 0.0
2015-May-02 16:33N 35°36' E 140°06'0 0.0
2015-May-02 15:33N 35°36' E 140°06'0 0.0
2015-May-02 14:33N 35°36' E 140°06'0 0.0
2015-May-02 13:33N 35°36' E 140°06'0 0.0
2015-May-02 12:33N 35°36' E 140°06'0 0.0
2015-May-02 11:33N 35°36' E 140°06'0 0.0
2015-May-02 10:33N 35°36' E 140°06'0 0.0
2015-May-02 09:33N 35°36' E 140°06'0 0.0
2015-May-02 08:33N 35°36' E 140°06'0 0.0
2015-May-02 07:33N 35°36' E 140°06'0 0.0
2015-May-02 06:33N 35°36' E 140°06'0 0.0
2015-May-02 05:33N 35°36' E 140°06'0 0.0
2015-May-02 04:33N 35°36' E 140°06'0 0.0
2015-May-02 03:33N 35°36' E 140°06'0 0.0
2015-May-02 02:33N 35°36' E 140°06'9 9.1
2015-May-02 01:32N 35°29' E 139°59'1 0.8
2015-May-02 00:33N 35°29' E 139°58'0 0.3
2015-May-01 23:33N 35°29' E 139°59'5 4.5
2015-May-01 22:33N 35°32' E 140°02'5 5.3
2015-May-01 21:33N 35°36' E 140°06'0 0.0
2015-May-01 20:33N 35°36' E 140°06'0 0.0
2015-May-01 19:33N 35°36' E 140°06'0 0.0
2015-May-01 18:33N 35°36' E 140°06'0 0.0
2015-May-01 17:33N 35°36' E 140°06'0 0.0
2015-May-01 16:33N 35°36' E 140°06'0 0.0
2015-May-01 15:33N 35°36' E 140°06'0 0.0
2015-May-01 14:33N 35°36' E 140°06'0 0.0
2015-May-01 13:33N 35°36' E 140°06'0 0.0
2015-May-01 12:33N 35°36' E 140°06'0 0.0
2015-May-01 11:33N 35°36' E 140°06'0 0.0
2015-May-01 10:33N 35°36' E 140°06'0 0.0
2015-May-01 09:33N 35°36' E 140°06'0 0.0
2015-May-01 08:33N 35°36' E 140°06'0 0.0
2015-May-01 07:33N 35°36' E 140°06'0 0.0
2015-May-01 06:33N 35°36' E 140°06'0 0.0
2015-May-01 05:33N 35°36' E 140°06'0 0.0
2015-May-01 04:21N 35°36' E 140°06'3 3.8
2015-May-01 03:33N 35°34' E 140°04'7 7.1
2015-May-01 02:33N 35°28' E 139°58'0 0.4
2015-May-01 01:33N 35°29' E 139°58'1 0.8
2015-May-01 00:34N 35°30' E 139°58'5 5.1
2015-Apr-30 23:33N 35°33' E 140°02'4 4.0
2015-Apr-30 22:32N 35°36' E 140°05'0 0.3
2015-Apr-30 21:33N 35°36' E 140°05'1 0.9
2015-Apr-30 20:33N 35°36' E 140°06'0 0.0
2015-Apr-30 19:33N 35°36' E 140°06'0 0.0
2015-Apr-30 18:33N 35°36' E 140°06'0 0.0
2015-Apr-30 17:33N 35°36' E 140°06'0 0.0
2015-Apr-30 16:33N 35°36' E 140°06'0 0.0
2015-Apr-30 15:33N 35°36' E 140°06'0 0.0
2015-Apr-30 14:33N 35°36' E 140°06'0 0.0
2015-Apr-30 13:33N 35°36' E 140°06'0 0.0
2015-Apr-30 12:33N 35°36' E 140°06'0 0.0
2015-Apr-30 11:33N 35°36' E 140°06'0 0.0
2015-Apr-30 10:33N 35°36' E 140°06'0 0.0
2015-Apr-30 09:33N 35°36' E 140°06'0 0.0
2015-Apr-30 08:33N 35°36' E 140°06'0 0.0
2015-Apr-30 07:33N 35°36' E 140°06'0 0.0
2015-Apr-30 06:33N 35°36' E 140°06'0 0.0
2015-Apr-30 05:33N 35°36' E 140°06'0 0.0
2015-Apr-30 04:33N 35°36' E 140°06'0 0.0
2015-Apr-30 03:33N 35°36' E 140°06'0 0.0
2015-Apr-30 02:33N 35°36' E 140°06'0 0.0
2015-Apr-30 01:33N 35°36' E 140°06'0 0.0
2015-Apr-30 00:33N 35°36' E 140°06'1 1.0
2015-Apr-29 23:33N 35°35' E 140°07'0 0.2
2015-Apr-29 22:33N 35°35' E 140°06'2 2.2
2015-Apr-29 21:34N 35°35' E 140°04'0 0.0
2015-Apr-29 20:33N 35°35' E 140°04'3 2.8
2015-Apr-29 19:33N 35°36' E 140°07'0 0.1
2015-Apr-29 18:33N 35°36' E 140°07'0 0.0
2015-Apr-29 17:33N 35°36' E 140°07'0 0.0
2015-Apr-29 16:33N 35°36' E 140°07'0 0.0
2015-Apr-29 15:33N 35°36' E 140°07'0 0.0
2015-Apr-29 14:33N 35°36' E 140°07'0 0.0
2015-Apr-29 13:33N 35°36' E 140°07'0 0.0
2015-Apr-29 12:33N 35°36' E 140°07'0 0.0
2015-Apr-29 11:33N 35°36' E 140°07'0 0.0
2015-Apr-29 10:33N 35°36' E 140°07'0 0.0
2015-Apr-29 09:33N 35°36' E 140°07'0 0.0
2015-Apr-29 08:33N 35°36' E 140°07'0 0.0
2015-Apr-29 07:33N 35°36' E 140°07'0 0.0
2015-Apr-29 06:33N 35°36' E 140°07'0 0.0
2015-Apr-29 05:33N 35°36' E 140°07'0 0.0
2015-Apr-29 04:33N 35°36' E 140°07'0 0.0
2015-Apr-29 03:33N 35°36' E 140°07'0 0.0
2015-Apr-29 02:33N 35°36' E 140°07'5 5.0
2015-Apr-29 01:33N 35°32' E 140°03'1 1.0
2015-Apr-29 00:34N 35°33' E 140°03'5 4.6
2015-Apr-28 23:33N 35°36' E 140°07'0 0.1
2015-Apr-28 22:33N 35°36' E 140°07'0 0.0
2015-Apr-28 21:33N 35°36' E 140°07'0 0.0
2015-Apr-28 20:33N 35°36' E 140°07'0 0.0
2015-Apr-28 19:33N 35°36' E 140°07'0 0.0
2015-Apr-28 18:33N 35°36' E 140°07'0 0.0
2015-Apr-28 17:33N 35°36' E 140°07'0 0.0
2015-Apr-28 16:33N 35°36' E 140°07'0 0.0
2015-Apr-28 15:33N 35°36' E 140°07'0 0.0
2015-Apr-28 14:33N 35°36' E 140°07'0 0.0
2015-Apr-28 13:33N 35°36' E 140°07'0 0.0
2015-Apr-28 12:33N 35°36' E 140°07'3 2.6
2015-Apr-28 11:33N 35°35' E 140°04'4 3.9
2015-Apr-28 10:33N 35°31' E 140°02'6 6.0
2015-Apr-28 09:33N 35°36' E 140°07'0 0.1
2015-Apr-28 08:33N 35°36' E 140°07'0 0.0
2015-Apr-28 07:33N 35°36' E 140°07'3 2.6
2015-Apr-28 06:33N 35°35' E 140°04'8 7.9
2015-Apr-28 05:33N 35°28' E 139°58'1 1.0
2015-Apr-28 04:33N 35°29' E 139°57'0 0.0
2015-Apr-28 03:33N 35°29' E 139°57'2 2.1
2015-Apr-28 02:33N 35°31' E 139°56'0 0.1
2015-Apr-28 01:33N 35°31' E 139°56'2 1.8
2015-Apr-28 00:33N 35°29' E 139°55'7 6.6
2015-Apr-27 23:34N 35°32' E 140°02'3 3.2
2015-Apr-27 22:33N 35°33' E 140°06'2 1.8
2015-Apr-27 21:33N 35°35' E 140°04'2 2.3
2015-Apr-27 20:33N 35°36' E 140°07'0 0.0
2015-Apr-27 19:33N 35°36' E 140°07'0 0.0
2015-Apr-27 18:33N 35°36' E 140°07'0 0.0
2015-Apr-27 17:33N 35°36' E 140°07'0 0.0
2015-Apr-27 16:33N 35°36' E 140°07'0 0.0
2015-Apr-27 15:33N 35°36' E 140°07'0 0.0
2015-Apr-27 14:33N 35°36' E 140°07'0 0.0
2015-Apr-27 13:33N 35°36' E 140°07'0 0.0
2015-Apr-27 12:33N 35°36' E 140°07'0 0.0
2015-Apr-27 11:33N 35°36' E 140°07'0 0.0
2015-Apr-27 10:33N 35°36' E 140°07'0 0.0
2015-Apr-27 09:33N 35°36' E 140°07'0 0.0
2015-Apr-27 08:33N 35°36' E 140°07'0 0.0
2015-Apr-27 07:33N 35°36' E 140°07'0 0.0
2015-Apr-27 06:33N 35°36' E 140°07'6 6.4
2015-Apr-27 05:33N 35°31' E 140°02'2 1.6
2015-Apr-27 04:33N 35°31' E 140°00'4 3.7
2015-Apr-27 03:33N 35°34' E 139°58'6 5.9
2015-Apr-27 02:33N 35°36' E 140°05'2 1.7
2015-Apr-27 01:33N 35°36' E 140°07'0 0.0
2015-Apr-27 00:33N 35°36' E 140°07'0 0.0
2015-Apr-26 23:33N 35°36' E 140°07'0 0.0
2015-Apr-26 22:33N 35°36' E 140°07'0 0.0
2015-Apr-26 21:33N 35°36' E 140°07'0 0.0
2015-Apr-26 20:33N 35°36' E 140°07'0 0.0
2015-Apr-26 19:33N 35°36' E 140°07'0 0.0
2015-Apr-26 18:33N 35°36' E 140°07'0 0.0
2015-Apr-26 17:33N 35°36' E 140°07'0 0.0
2015-Apr-26 16:33N 35°36' E 140°07'0 0.0
2015-Apr-26 15:33N 35°36' E 140°07'0 0.0
2015-Apr-26 14:33N 35°36' E 140°07'0 0.0
2015-Apr-26 13:32N 35°36' E 140°07'0 0.0
2015-Apr-26 12:33N 35°36' E 140°07'0 0.0
2015-Apr-26 11:33N 35°36' E 140°07'0 0.0
2015-Apr-26 10:33N 35°36' E 140°07'0 0.0
2015-Apr-26 09:33N 35°36' E 140°07'0 0.0
2015-Apr-26 08:33N 35°36' E 140°07'0 0.0
2015-Apr-26 07:33N 35°36' E 140°07'0 0.0
2015-Apr-26 06:33N 35°36' E 140°07'0 0.0
2015-Apr-26 05:33N 35°36' E 140°07'7 6.6
2015-Apr-26 04:34N 35°33' E 139°60'4 3.6
2015-Apr-26 03:34N 35°31' E 139°56'0 0.4
2015-Apr-26 02:33N 35°30' E 139°56'2 2.2
2015-Apr-26 01:33N 35°29' E 139°54'0 0.0
2015-Apr-26 00:33N 35°29' E 139°54'1 1.2
2015-Apr-25 23:33N 35°30' E 139°54'4 3.8
2015-Apr-25 22:33N 35°33' E 139°56'5 5.4
2015-Apr-25 21:33N 35°31' E 140°02'6 6.1
2015-Apr-25 20:33N 35°36' E 140°07'0 0.0
2015-Apr-25 19:33N 35°36' E 140°07'0 0.0
2015-Apr-25 18:33N 35°36' E 140°07'0 0.0
2015-Apr-25 17:33N 35°36' E 140°07'0 0.0
2015-Apr-25 16:33N 35°36' E 140°07'0 0.0
2015-Apr-25 15:33N 35°36' E 140°07'0 0.0
2015-Apr-25 14:33N 35°36' E 140°07'0 0.0
2015-Apr-25 13:33N 35°36' E 140°07'0 0.0
2015-Apr-25 12:33N 35°36' E 140°07'0 0.0
2015-Apr-25 11:33N 35°36' E 140°07'0 0.0
2015-Apr-25 10:33N 35°36' E 140°07'0 0.0
2015-Apr-25 09:33N 35°36' E 140°07'0 0.0
2015-Apr-25 08:33N 35°36' E 140°07'1 1.0
2015-Apr-25 07:33N 35°35' E 140°06'3 2.6
2015-Apr-25 06:33N 35°35' E 140°03'1 0.7
2015-Apr-25 05:33N 35°35' E 140°02'0 0.0
2015-Apr-25 04:32N 35°35' E 140°02'0 0.0
2015-Apr-25 03:33N 35°35' E 140°02'6 5.9
2015-Apr-25 02:33N 35°30' E 140°01'0 0.0
2015-Apr-25 01:33N 35°30' E 140°01'2 1.9
2015-Apr-25 00:33N 35°31' E 139°60'0 0.4
2015-Apr-24 23:34N 35°31' E 139°60'8 7.5
2015-Apr-24 22:33N 35°36' E 140°07'0 0.1
2015-Apr-24 21:33N 35°36' E 140°07'0 0.0
2015-Apr-24 20:33N 35°36' E 140°07'0 0.0
2015-Apr-24 19:33N 35°36' E 140°07'0 0.0
2015-Apr-24 18:33N 35°36' E 140°07'0 0.0
2015-Apr-24 17:33N 35°36' E 140°07'0 0.0
2015-Apr-24 16:33N 35°36' E 140°07'0 0.0
2015-Apr-24 15:33N 35°36' E 140°07'0 0.0
2015-Apr-24 14:33N 35°36' E 140°07'0 0.0
2015-Apr-24 13:33N 35°36' E 140°07'0 0.0
2015-Apr-24 12:33N 35°36' E 140°07'0 0.0
2015-Apr-24 11:33N 35°36' E 140°07'0 0.0
2015-Apr-24 10:33N 35°36' E 140°07'0 0.0
2015-Apr-24 09:33N 35°36' E 140°07'0 0.0
2015-Apr-24 08:33N 35°36' E 140°07'0 0.0
2015-Apr-24 07:33N 35°36' E 140°07'1 1.1
2015-Apr-24 06:33N 35°35' E 140°06'4 4.0
2015-Apr-24 05:33N 35°32' E 140°03'6 5.9
2015-Apr-24 04:33N 35°31' E 139°56'1010.3
2015-Apr-24 03:33N 35°36' E 140°07'0 0.0
2015-Apr-24 02:33N 35°36' E 140°07'0 0.0
2015-Apr-24 01:33N 35°36' E 140°07'0 0.0
2015-Apr-24 00:33N 35°36' E 140°07'0 0.0
2015-Apr-23 23:33N 35°36' E 140°07'1 0.9
2015-Apr-23 22:33N 35°36' E 140°06'  
Track history (hours):
 
Tides and Currents Weather Stations Pressure Air Temp Water Temp Dewpoint Dewpoint Depression Visibility Wind Speed Wind Dir Waves Ship Positions

Kitanomaru

Last reported at 2015-May-03 22:33 UTC. Time now 2015-May-03 22:57 UTC.
Position N 35°35' E 140°06'.

Length 39 m; draft 4 m.

Type: Tug. MMSI: 431000773.

Date/timePositionNaut miles runAvg speedWind from/ knotsBaromVisibWave heightAir tempDewpointWater temp
2015-May-03 22:33N 35°35' E 140°06'5 5.0
2015-May-03 21:32N 35°31' E 140°02'6 6.1
2015-May-03 20:33N 35°36' E 140°06'0 0.0
2015-May-03 19:33N 35°36' E 140°06'0 0.0
2015-May-03 18:33N 35°36' E 140°06'0 0.0
2015-May-03 17:33N 35°36' E 140°06'0 0.0
2015-May-03 16:33N 35°36' E 140°06'0 0.0
2015-May-03 15:33N 35°36' E 140°06'0 0.0
2015-May-03 14:33N 35°36' E 140°06'0 0.0
2015-May-03 13:34N 35°36' E 140°06'0 0.0
2015-May-03 12:33N 35°36' E 140°06'0 0.0
2015-May-03 11:33N 35°36' E 140°06'0 0.0
2015-May-03 10:33N 35°36' E 140°06'7 7.3
2015-May-03 09:32N 35°30' E 140°01'0 0.1
2015-May-03 08:33N 35°30' E 140°01'1 1.5
2015-May-03 07:33N 35°31' E 140°00'0 0.3
2015-May-03 06:33N 35°31' E 140°01'0 0.0
2015-May-03 05:31N 35°31' E 140°01'0 0.0
2015-May-03 04:33N 35°31' E 140°01'3 3.3
2015-May-03 03:34N 35°28' E 139°58'0 0.5
2015-May-03 02:33N 35°29' E 139°59'3 3.4
2015-May-03 01:34N 35°32' E 140°00'1 0.9
2015-May-03 00:32N 35°31' E 139°60'2 1.6
2015-May-02 23:33N 35°32' E 140°01'6 6.0
2015-May-02 22:33N 35°36' E 140°06'0 0.0
2015-May-02 21:33N 35°36' E 140°06'0 0.0
2015-May-02 20:33N 35°36' E 140°06'0 0.0
2015-May-02 19:33N 35°36' E 140°06'0 0.0
2015-May-02 18:33N 35°36' E 140°06'0 0.0
2015-May-02 17:33N 35°36' E 140°06'0 0.0
2015-May-02 16:33N 35°36' E 140°06'0 0.0
2015-May-02 15:33N 35°36' E 140°06'0 0.0
2015-May-02 14:33N 35°36' E 140°06'0 0.0
2015-May-02 13:33N 35°36' E 140°06'0 0.0
2015-May-02 12:33N 35°36' E 140°06'0 0.0
2015-May-02 11:33N 35°36' E 140°06'0 0.0
2015-May-02 10:33N 35°36' E 140°06'0 0.0
2015-May-02 09:33N 35°36' E 140°06'0 0.0
2015-May-02 08:33N 35°36' E 140°06'0 0.0
2015-May-02 07:33N 35°36' E 140°06'0 0.0
2015-May-02 06:33N 35°36' E 140°06'0 0.0
2015-May-02 05:33N 35°36' E 140°06'0 0.0
2015-May-02 04:33N 35°36' E 140°06'0 0.0
2015-May-02 03:33N 35°36' E 140°06'0 0.0
2015-May-02 02:33N 35°36' E 140°06'9 9.1
2015-May-02 01:32N 35°29' E 139°59'1 0.8
2015-May-02 00:33N 35°29' E 139°58'0 0.3
2015-May-01 23:33N 35°29' E 139°59'5 4.5
2015-May-01 22:33N 35°32' E 140°02'5 5.3
2015-May-01 21:33N 35°36' E 140°06'0 0.0
2015-May-01 20:33N 35°36' E 140°06'0 0.0
2015-May-01 19:33N 35°36' E 140°06'0 0.0
2015-May-01 18:33N 35°36' E 140°06'0 0.0
2015-May-01 17:33N 35°36' E 140°06'0 0.0
2015-May-01 16:33N 35°36' E 140°06'0 0.0
2015-May-01 15:33N 35°36' E 140°06'0 0.0
2015-May-01 14:33N 35°36' E 140°06'0 0.0
2015-May-01 13:33N 35°36' E 140°06'0 0.0
2015-May-01 12:33N 35°36' E 140°06'0 0.0
2015-May-01 11:33N 35°36' E 140°06'0 0.0
2015-May-01 10:33N 35°36' E 140°06'0 0.0
2015-May-01 09:33N 35°36' E 140°06'0 0.0
2015-May-01 08:33N 35°36' E 140°06'0 0.0
2015-May-01 07:33N 35°36' E 140°06'0 0.0
2015-May-01 06:33N 35°36' E 140°06'0 0.0
2015-May-01 05:33N 35°36' E 140°06'0 0.0
2015-May-01 04:21N 35°36' E 140°06'3 3.8
2015-May-01 03:33N 35°34' E 140°04'7 7.1
2015-May-01 02:33N 35°28' E 139°58'0 0.4
2015-May-01 01:33N 35°29' E 139°58'1 0.8
2015-May-01 00:34N 35°30' E 139°58'5 5.1
2015-Apr-30 23:33N 35°33' E 140°02'4 4.0
2015-Apr-30 22:32N 35°36' E 140°05'0 0.3
2015-Apr-30 21:33N 35°36' E 140°05'1 0.9
2015-Apr-30 20:33N 35°36' E 140°06'0 0.0
2015-Apr-30 19:33N 35°36' E 140°06'0 0.0
2015-Apr-30 18:33N 35°36' E 140°06'0 0.0
2015-Apr-30 17:33N 35°36' E 140°06'0 0.0
2015-Apr-30 16:33N 35°36' E 140°06'0 0.0
2015-Apr-30 15:33N 35°36' E 140°06'0 0.0
2015-Apr-30 14:33N 35°36' E 140°06'0 0.0
2015-Apr-30 13:33N 35°36' E 140°06'0 0.0
2015-Apr-30 12:33N 35°36' E 140°06'0 0.0
2015-Apr-30 11:33N 35°36' E 140°06'0 0.0
2015-Apr-30 10:33N 35°36' E 140°06'0 0.0
2015-Apr-30 09:33N 35°36' E 140°06'0 0.0
2015-Apr-30 08:33N 35°36' E 140°06'0 0.0
2015-Apr-30 07:33N 35°36' E 140°06'0 0.0
2015-Apr-30 06:33N 35°36' E 140°06'0 0.0
2015-Apr-30 05:33N 35°36' E 140°06'0 0.0
2015-Apr-30 04:33N 35°36' E 140°06'0 0.0
2015-Apr-30 03:33N 35°36' E 140°06'0 0.0
2015-Apr-30 02:33N 35°36' E 140°06'0 0.0
2015-Apr-30 01:33N 35°36' E 140°06'0 0.0
2015-Apr-30 00:33N 35°36' E 140°06'1 1.0
2015-Apr-29 23:33N 35°35' E 140°07'0 0.2
2015-Apr-29 22:33N 35°35' E 140°06'2 2.2
2015-Apr-29 21:34N 35°35' E 140°04'0 0.0
2015-Apr-29 20:33N 35°35' E 140°04'3 2.8
2015-Apr-29 19:33N 35°36' E 140°07'0 0.1
2015-Apr-29 18:33N 35°36' E 140°07'0 0.0
2015-Apr-29 17:33N 35°36' E 140°07'0 0.0
2015-Apr-29 16:33N 35°36' E 140°07'0 0.0
2015-Apr-29 15:33N 35°36' E 140°07'0 0.0
2015-Apr-29 14:33N 35°36' E 140°07'0 0.0
2015-Apr-29 13:33N 35°36' E 140°07'0 0.0
2015-Apr-29 12:33N 35°36' E 140°07'0 0.0
2015-Apr-29 11:33N 35°36' E 140°07'0 0.0
2015-Apr-29 10:33N 35°36' E 140°07'0 0.0
2015-Apr-29 09:33N 35°36' E 140°07'0 0.0
2015-Apr-29 08:33N 35°36' E 140°07'0 0.0
2015-Apr-29 07:33N 35°36' E 140°07'0 0.0
2015-Apr-29 06:33N 35°36' E 140°07'0 0.0
2015-Apr-29 05:33N 35°36' E 140°07'0 0.0
2015-Apr-29 04:33N 35°36' E 140°07'0 0.0
2015-Apr-29 03:33N 35°36' E 140°07'0 0.0
2015-Apr-29 02:33N 35°36' E 140°07'5 5.0
2015-Apr-29 01:33N 35°32' E 140°03'1 1.0
2015-Apr-29 00:34N 35°33' E 140°03'5 4.6
2015-Apr-28 23:33N 35°36' E 140°07'0 0.1
2015-Apr-28 22:33N 35°36' E 140°07'0 0.0
2015-Apr-28 21:33N 35°36' E 140°07'0 0.0
2015-Apr-28 20:33N 35°36' E 140°07'0 0.0
2015-Apr-28 19:33N 35°36' E 140°07'0 0.0
2015-Apr-28 18:33N 35°36' E 140°07'0 0.0
2015-Apr-28 17:33N 35°36' E 140°07'0 0.0
2015-Apr-28 16:33N 35°36' E 140°07'0 0.0
2015-Apr-28 15:33N 35°36' E 140°07'0 0.0
2015-Apr-28 14:33N 35°36' E 140°07'0 0.0
2015-Apr-28 13:33N 35°36' E 140°07'0 0.0
2015-Apr-28 12:33N 35°36' E 140°07'3 2.6
2015-Apr-28 11:33N 35°35' E 140°04'4 3.9
2015-Apr-28 10:33N 35°31' E 140°02'6 6.0
2015-Apr-28 09:33N 35°36' E 140°07'0 0.1
2015-Apr-28 08:33N 35°36' E 140°07'0 0.0
2015-Apr-28 07:33N 35°36' E 140°07'3 2.6
2015-Apr-28 06:33N 35°35' E 140°04'8 7.9
2015-Apr-28 05:33N 35°28' E 139°58'1 1.0
2015-Apr-28 04:33N 35°29' E 139°57'0 0.0
2015-Apr-28 03:33N 35°29' E 139°57'2 2.1
2015-Apr-28 02:33N 35°31' E 139°56'0 0.1
2015-Apr-28 01:33N 35°31' E 139°56'2 1.8
2015-Apr-28 00:33N 35°29' E 139°55'7 6.6
2015-Apr-27 23:34N 35°32' E 140°02'3 3.2
2015-Apr-27 22:33N 35°33' E 140°06'2 1.8
2015-Apr-27 21:33N 35°35' E 140°04'2 2.3
2015-Apr-27 20:33N 35°36' E 140°07'0 0.0
2015-Apr-27 19:33N 35°36' E 140°07'0 0.0
2015-Apr-27 18:33N 35°36' E 140°07'0 0.0
2015-Apr-27 17:33N 35°36' E 140°07'0 0.0
2015-Apr-27 16:33N 35°36' E 140°07'0 0.0
2015-Apr-27 15:33N 35°36' E 140°07'0 0.0
2015-Apr-27 14:33N 35°36' E 140°07'0 0.0
2015-Apr-27 13:33N 35°36' E 140°07'0 0.0
2015-Apr-27 12:33N 35°36' E 140°07'0 0.0
2015-Apr-27 11:33N 35°36' E 140°07'0 0.0
2015-Apr-27 10:33N 35°36' E 140°07'0 0.0
2015-Apr-27 09:33N 35°36' E 140°07'0 0.0
2015-Apr-27 08:33N 35°36' E 140°07'0 0.0
2015-Apr-27 07:33N 35°36' E 140°07'0 0.0
2015-Apr-27 06:33N 35°36' E 140°07'6 6.4
2015-Apr-27 05:33N 35°31' E 140°02'2 1.6
2015-Apr-27 04:33N 35°31' E 140°00'4 3.7
2015-Apr-27 03:33N 35°34' E 139°58'6 5.9
2015-Apr-27 02:33N 35°36' E 140°05'2 1.7
2015-Apr-27 01:33N 35°36' E 140°07'0 0.0
2015-Apr-27 00:33N 35°36' E 140°07'0 0.0
2015-Apr-26 23:33N 35°36' E 140°07'0 0.0
2015-Apr-26 22:33N 35°36' E 140°07'0 0.0
2015-Apr-26 21:33N 35°36' E 140°07'0 0.0
2015-Apr-26 20:33N 35°36' E 140°07'0 0.0
2015-Apr-26 19:33N 35°36' E 140°07'0 0.0
2015-Apr-26 18:33N 35°36' E 140°07'0 0.0
2015-Apr-26 17:33N 35°36' E 140°07'0 0.0
2015-Apr-26 16:33N 35°36' E 140°07'0 0.0
2015-Apr-26 15:33N 35°36' E 140°07'0 0.0
2015-Apr-26 14:33N 35°36' E 140°07'0 0.0
2015-Apr-26 13:32N 35°36' E 140°07'0 0.0
2015-Apr-26 12:33N 35°36' E 140°07'0 0.0
2015-Apr-26 11:33N 35°36' E 140°07'0 0.0
2015-Apr-26 10:33N 35°36' E 140°07'0 0.0
2015-Apr-26 09:33N 35°36' E 140°07'0 0.0
2015-Apr-26 08:33N 35°36' E 140°07'0 0.0
2015-Apr-26 07:33N 35°36' E 140°07'0 0.0
2015-Apr-26 06:33N 35°36' E 140°07'0 0.0
2015-Apr-26 05:33N 35°36' E 140°07'7 6.6
2015-Apr-26 04:34N 35°33' E 139°60'4 3.6
2015-Apr-26 03:34N 35°31' E 139°56'0 0.4
2015-Apr-26 02:33N 35°30' E 139°56'2 2.2
2015-Apr-26 01:33N 35°29' E 139°54'0 0.0
2015-Apr-26 00:33N 35°29' E 139°54'1 1.2
2015-Apr-25 23:33N 35°30' E 139°54'4 3.8
2015-Apr-25 22:33N 35°33' E 139°56'5 5.4
2015-Apr-25 21:33N 35°31' E 140°02'6 6.1
2015-Apr-25 20:33N 35°36' E 140°07'0 0.0
2015-Apr-25 19:33N 35°36' E 140°07'0 0.0
2015-Apr-25 18:33N 35°36' E 140°07'0 0.0
2015-Apr-25 17:33N 35°36' E 140°07'0 0.0
2015-Apr-25 16:33N 35°36' E 140°07'0 0.0
2015-Apr-25 15:33N 35°36' E 140°07'0 0.0
2015-Apr-25 14:33N 35°36' E 140°07'0 0.0
2015-Apr-25 13:33N 35°36' E 140°07'0 0.0
2015-Apr-25 12:33N 35°36' E 140°07'0 0.0
2015-Apr-25 11:33N 35°36' E 140°07'0 0.0
2015-Apr-25 10:33N 35°36' E 140°07'0 0.0
2015-Apr-25 09:33N 35°36' E 140°07'0 0.0
2015-Apr-25 08:33N 35°36' E 140°07'1 1.0
2015-Apr-25 07:33N 35°35' E 140°06'3 2.6
2015-Apr-25 06:33N 35°35' E 140°03'1 0.7
2015-Apr-25 05:33N 35°35' E 140°02'0 0.0
2015-Apr-25 04:32N 35°35' E 140°02'0 0.0
2015-Apr-25 03:33N 35°35' E 140°02'6 5.9
2015-Apr-25 02:33N 35°30' E 140°01'0 0.0
2015-Apr-25 01:33N 35°30' E 140°01'2 1.9
2015-Apr-25 00:33N 35°31' E 139°60'0 0.4
2015-Apr-24 23:34N 35°31' E 139°60'8 7.5
2015-Apr-24 22:33N 35°36' E 140°07'0 0.1
2015-Apr-24 21:33N 35°36' E 140°07'0 0.0
2015-Apr-24 20:33N 35°36' E 140°07'0 0.0
2015-Apr-24 19:33N 35°36' E 140°07'0 0.0
2015-Apr-24 18:33N 35°36' E 140°07'0 0.0
2015-Apr-24 17:33N 35°36' E 140°07'0 0.0
2015-Apr-24 16:33N 35°36' E 140°07'0 0.0
2015-Apr-24 15:33N 35°36' E 140°07'0 0.0
2015-Apr-24 14:33N 35°36' E 140°07'0 0.0
2015-Apr-24 13:33N 35°36' E 140°07'0 0.0
2015-Apr-24 12:33N 35°36' E 140°07'0 0.0
2015-Apr-24 11:33N 35°36' E 140°07'0 0.0
2015-Apr-24 10:33N 35°36' E 140°07'0 0.0
2015-Apr-24 09:33N 35°36' E 140°07'0 0.0
2015-Apr-24 08:33N 35°36' E 140°07'0 0.0
2015-Apr-24 07:33N 35°36' E 140°07'1 1.1
2015-Apr-24 06:33N 35°35' E 140°06'4 4.0
2015-Apr-24 05:33N 35°32' E 140°03'6 5.9
2015-Apr-24 04:33N 35°31' E 139°56'1010.3
2015-Apr-24 03:33N 35°36' E 140°07'0 0.0
2015-Apr-24 02:33N 35°36' E 140°07'0 0.0
2015-Apr-24 01:33N 35°36' E 140°07'0 0.0
2015-Apr-24 00:33N 35°36' E 140°07'0 0.0
2015-Apr-23 23:33N 35°36' E 140°07'1 0.9
2015-Apr-23 22:33N 35°36' E 140°06'  

Dump ship's entire track history